sensor_id;sensor_type;location;lat;lon;timestamp;pressure;altitude;pressure_sealevel;temperature;humidity
41078;BME280;26823;42.662;23.352;2023-02-18T00:00:05;95516.47;;;2.87;62.27
41078;BME280;26823;42.662;23.352;2023-02-18T00:02:32;95509.47;;;2.86;62.12
41078;BME280;26823;42.662;23.352;2023-02-18T00:04:57;95506.88;;;2.72;62.27
41078;BME280;26823;42.662;23.352;2023-02-18T00:07:23;95510.53;;;2.78;61.64
41078;BME280;26823;42.662;23.352;2023-02-18T00:09:48;95504.56;;;2.83;60.76
41078;BME280;26823;42.662;23.352;2023-02-18T00:12:13;95497.97;;;2.85;61.21
41078;BME280;26823;42.662;23.352;2023-02-18T00:14:39;95500.00;;;2.90;60.51
41078;BME280;26823;42.662;23.352;2023-02-18T00:17:04;95496.81;;;3.06;61.02
41078;BME280;26823;42.662;23.352;2023-02-18T00:19:30;95486.34;;;3.05;60.35
41078;BME280;26823;42.662;23.352;2023-02-18T00:21:55;95485.56;;;2.98;61.73
41078;BME280;26823;42.662;23.352;2023-02-18T00:24:21;95490.31;;;2.96;61.89
41078;BME280;26823;42.662;23.352;2023-02-18T00:26:51;95486.41;;;2.98;61.18
41078;BME280;26823;42.662;23.352;2023-02-18T00:29:18;95471.00;;;2.93;61.30
41078;BME280;26823;42.662;23.352;2023-02-18T00:31:50;95451.41;;;2.68;62.00
41078;BME280;26823;42.662;23.352;2023-02-18T00:34:15;95469.63;;;2.84;61.66
41078;BME280;26823;42.662;23.352;2023-02-18T00:36:41;95464.09;;;2.79;62.04
41078;BME280;26823;42.662;23.352;2023-02-18T00:39:09;95439.75;;;2.55;62.14
41078;BME280;26823;42.662;23.352;2023-02-18T00:41:35;95461.47;;;2.72;62.50
41078;BME280;26823;42.662;23.352;2023-02-18T00:44:00;95414.16;;;2.34;63.42
41078;BME280;26823;42.662;23.352;2023-02-18T00:46:26;95443.22;;;2.56;63.16
41078;BME280;26823;42.662;23.352;2023-02-18T00:48:53;95464.94;;;2.73;62.78
41078;BME280;26823;42.662;23.352;2023-02-18T00:51:19;95429.94;;;2.42;62.97
41078;BME280;26823;42.662;23.352;2023-02-18T00:53:45;95454.84;;;2.30;64.63
41078;BME280;26823;42.662;23.352;2023-02-18T00:56:18;95454.66;;;2.24;64.24
41078;BME280;26823;42.662;23.352;2023-02-18T00:58:58;95429.84;;;2.17;64.73
41078;BME280;26823;42.662;23.352;2023-02-18T01:01:23;95431.47;;;2.11;63.89
41078;BME280;26823;42.662;23.352;2023-02-18T01:03:49;95464.69;;;2.36;64.54
41078;BME280;26823;42.662;23.352;2023-02-18T01:06:14;95453.16;;;2.42;64.35
41078;BME280;26823;42.662;23.352;2023-02-18T01:08:40;95466.72;;;2.47;64.32
41078;BME280;26823;42.662;23.352;2023-02-18T01:11:08;95464.88;;;2.41;64.18
41078;BME280;26823;42.662;23.352;2023-02-18T01:13:33;95447.03;;;2.28;64.77
41078;BME280;26823;42.662;23.352;2023-02-18T01:15:59;95448.28;;;2.32;64.10
41078;BME280;26823;42.662;23.352;2023-02-18T01:18:25;95434.16;;;2.11;63.96
41078;BME280;26823;42.662;23.352;2023-02-18T01:20:51;95453.41;;;2.34;63.42
41078;BME280;26823;42.662;23.352;2023-02-18T01:23:17;95453.66;;;2.19;64.58
41078;BME280;26823;42.662;23.352;2023-02-18T01:25:42;95441.31;;;2.18;65.16
41078;BME280;26823;42.662;23.352;2023-02-18T01:28:10;95458.78;;;2.27;64.59
41078;BME280;26823;42.662;23.352;2023-02-18T01:30:36;95441.09;;;2.26;64.30
41078;BME280;26823;42.662;23.352;2023-02-18T01:33:02;95442.47;;;2.49;63.66
41078;BME280;26823;42.662;23.352;2023-02-18T01:35:27;95454.78;;;2.50;63.81
41078;BME280;26823;42.662;23.352;2023-02-18T01:37:53;95432.66;;;2.36;63.32
41078;BME280;26823;42.662;23.352;2023-02-18T01:40:22;95454.59;;;2.44;63.91
41078;BME280;26823;42.662;23.352;2023-02-18T01:42:48;95447.41;;;2.45;63.68
41078;BME280;26823;42.662;23.352;2023-02-18T01:48:20;95456.44;;;2.44;64.05
41078;BME280;26823;42.662;23.352;2023-02-18T01:50:48;95449.81;;;2.53;63.68
41078;BME280;26823;42.662;23.352;2023-02-18T01:53:16;95471.00;;;2.48;63.89
41078;BME280;26823;42.662;23.352;2023-02-18T01:55:43;95454.81;;;2.36;64.13
41078;BME280;26823;42.662;23.352;2023-02-18T01:58:10;95468.59;;;2.33;64.66
41078;BME280;26823;42.662;23.352;2023-02-18T02:00:36;95473.94;;;2.26;65.80
41078;BME280;26823;42.662;23.352;2023-02-18T02:03:02;95470.50;;;2.19;65.50
41078;BME280;26823;42.662;23.352;2023-02-18T02:05:31;95476.25;;;2.09;65.14
41078;BME280;26823;42.662;23.352;2023-02-18T02:07:57;95450.84;;;2.00;65.10
41078;BME280;26823;42.662;23.352;2023-02-18T02:16:39;95458.84;;;1.93;65.99
41078;BME280;26823;42.662;23.352;2023-02-18T02:22:08;95455.31;;;2.13;65.77
41078;BME280;26823;42.662;23.352;2023-02-18T02:40:59;95441.25;;;1.72;67.90
41078;BME280;26823;42.662;23.352;2023-02-18T02:43:49;95438.16;;;1.62;68.04
41078;BME280;26823;42.662;23.352;2023-02-18T02:46:25;95434.66;;;1.68;68.07
41078;BME280;26823;42.662;23.352;2023-02-18T02:51:37;95426.66;;;1.68;67.89
41078;BME280;26823;42.662;23.352;2023-02-18T02:54:25;95438.34;;;1.67;68.58
41078;BME280;26823;42.662;23.352;2023-02-18T02:59:30;95429.13;;;1.63;68.20
41078;BME280;26823;42.662;23.352;2023-02-18T03:12:37;95447.22;;;1.61;68.22
41078;BME280;26823;42.662;23.352;2023-02-18T03:17:50;95443.09;;;1.65;68.53
41078;BME280;26823;42.662;23.352;2023-02-18T03:22:52;95457.25;;;1.59;68.99
41078;BME280;26823;42.662;23.352;2023-02-18T03:25:20;95449.03;;;1.67;68.29
41078;BME280;26823;42.662;23.352;2023-02-18T03:27:55;95461.75;;;1.52;68.84
41078;BME280;26823;42.662;23.352;2023-02-18T03:30:28;95487.19;;;1.54;69.29
41078;BME280;26823;42.662;23.352;2023-02-18T03:33:00;95452.13;;;1.44;69.05
41078;BME280;26823;42.662;23.352;2023-02-18T03:35:28;95487.00;;;1.42;69.60
41078;BME280;26823;42.662;23.352;2023-02-18T03:38:01;95464.22;;;1.40;69.07
41078;BME280;26823;42.662;23.352;2023-02-18T03:40:29;95499.50;;;1.55;69.73
41078;BME280;26823;42.662;23.352;2023-02-18T03:42:57;95475.88;;;1.25;70.38
41078;BME280;26823;42.662;23.352;2023-02-18T03:45:23;95501.34;;;1.41;70.38
41078;BME280;26823;42.662;23.352;2023-02-18T03:47:49;95500.94;;;1.44;69.76
41078;BME280;26823;42.662;23.352;2023-02-18T03:50:15;95494.78;;;1.37;69.78
41078;BME280;26823;42.662;23.352;2023-02-18T03:52:40;95493.31;;;1.28;69.83
41078;BME280;26823;42.662;23.352;2023-02-18T03:55:06;95495.19;;;1.41;69.46
41078;BME280;26823;42.662;23.352;2023-02-18T03:57:33;95498.28;;;1.44;69.39
41078;BME280;26823;42.662;23.352;2023-02-18T03:59:58;95490.66;;;1.21;70.06
41078;BME280;26823;42.662;23.352;2023-02-18T04:02:24;95485.75;;;1.25;69.75
41078;BME280;26823;42.662;23.352;2023-02-18T04:04:49;95491.50;;;1.49;68.97
41078;BME280;26823;42.662;23.352;2023-02-18T04:07:15;95489.44;;;1.51;68.96
41078;BME280;26823;42.662;23.352;2023-02-18T04:09:40;95485.94;;;1.37;69.90
41078;BME280;26823;42.662;23.352;2023-02-18T04:12:05;95488.00;;;1.41;69.99
41078;BME280;26823;42.662;23.352;2023-02-18T04:14:31;95471.00;;;1.36;69.66
41078;BME280;26823;42.662;23.352;2023-02-18T04:16:56;95479.63;;;1.44;69.07
41078;BME280;26823;42.662;23.352;2023-02-18T04:19:22;95487.19;;;1.54;69.81
41078;BME280;26823;42.662;23.352;2023-02-18T04:21:47;95484.53;;;1.54;69.52
41078;BME280;26823;42.662;23.352;2023-02-18T04:24:13;95471.19;;;1.34;70.48
41078;BME280;26823;42.662;23.352;2023-02-18T04:26:38;95429.38;;;1.14;69.83
41078;BME280;26823;42.662;23.352;2023-02-18T04:29:03;95467.31;;;1.17;71.17
41078;BME280;26823;42.662;23.352;2023-02-18T04:31:29;95464.63;;;1.17;71.77
41078;BME280;26823;42.662;23.352;2023-02-18T04:33:54;95442.66;;;1.01;70.45
41078;BME280;26823;42.662;23.352;2023-02-18T04:36:20;95467.06;;;1.05;70.84
41078;BME280;26823;42.662;23.352;2023-02-18T04:38:52;95460.72;;;1.06;71.09
41078;BME280;26823;42.662;23.352;2023-02-18T04:41:17;95463.78;;;1.23;70.85
41078;BME280;26823;42.662;23.352;2023-02-18T04:43:42;95450.69;;;1.41;69.35
41078;BME280;26823;42.662;23.352;2023-02-18T04:46:08;95457.84;;;1.34;69.83
41078;BME280;26823;42.662;23.352;2023-02-18T04:48:33;95473.66;;;1.36;69.28
41078;BME280;26823;42.662;23.352;2023-02-18T04:50:59;95471.19;;;1.21;71.64
41078;BME280;26823;42.662;23.352;2023-02-18T04:53:24;95453.13;;;1.03;71.02
41078;BME280;26823;42.662;23.352;2023-02-18T04:55:51;95473.81;;;1.07;71.45
41078;BME280;26823;42.662;23.352;2023-02-18T04:58:18;95470.31;;;0.87;71.15
41078;BME280;26823;42.662;23.352;2023-02-18T05:00:43;95464.19;;;1.06;70.05
41078;BME280;26823;42.662;23.352;2023-02-18T05:03:09;95490.19;;;0.97;71.26
41078;BME280;26823;42.662;23.352;2023-02-18T05:05:34;95473.22;;;1.12;70.68
41078;BME280;26823;42.662;23.352;2023-02-18T05:08:00;95495.59;;;1.24;70.54
41078;BME280;26823;42.662;23.352;2023-02-18T05:10:26;95466.47;;;1.09;70.03
41078;BME280;26823;42.662;23.352;2023-02-18T05:12:51;95502.16;;;1.28;70.86
41078;BME280;26823;42.662;23.352;2023-02-18T05:15:17;95500.28;;;1.29;70.93
41078;BME280;26823;42.662;23.352;2023-02-18T05:17:42;95482.06;;;1.46;70.25
41078;BME280;26823;42.662;23.352;2023-02-18T05:20:08;95477.16;;;1.36;69.66
41078;BME280;26823;42.662;23.352;2023-02-18T05:22:34;95476.31;;;1.56;68.81
41078;BME280;26823;42.662;23.352;2023-02-18T05:24:59;95487.19;;;1.54;69.17
41078;BME280;26823;42.662;23.352;2023-02-18T05:27:25;95480.81;;;1.62;69.52
41078;BME280;26823;42.662;23.352;2023-02-18T05:29:50;95444.31;;;1.56;69.13
41078;BME280;26823;42.662;23.352;2023-02-18T05:32:15;95459.91;;;1.59;69.52
41078;BME280;26823;42.662;23.352;2023-02-18T05:34:41;95473.03;;;1.67;69.28
41078;BME280;26823;42.662;23.352;2023-02-18T05:37:06;95470.56;;;1.66;67.80
41078;BME280;26823;42.662;23.352;2023-02-18T05:39:32;95456.81;;;1.82;68.19
41078;BME280;26823;42.662;23.352;2023-02-18T05:41:57;95462.78;;;1.57;68.93
41078;BME280;26823;42.662;23.352;2023-02-18T05:44:22;95459.09;;;1.32;68.96
41078;BME280;26823;42.662;23.352;2023-02-18T05:47:03;95469.13;;;1.23;70.36
41078;BME280;26823;42.662;23.352;2023-02-18T05:49:30;95479.19;;;1.34;69.92
41078;BME280;26823;42.662;23.352;2023-02-18T05:51:56;95458.06;;;1.33;68.75
41078;BME280;26823;42.662;23.352;2023-02-18T05:54:22;95491.50;;;1.75;69.15
41078;BME280;26823;42.662;23.352;2023-02-18T05:56:48;95483.25;;;1.84;69.56
41078;BME280;26823;42.662;23.352;2023-02-18T05:59:13;95514.06;;;1.79;68.71
41078;BME280;26823;42.662;23.352;2023-02-18T06:01:39;95476.75;;;1.66;68.38
41078;BME280;26823;42.662;23.352;2023-02-18T06:04:05;95496.19;;;2.00;67.27
41078;BME280;26823;42.662;23.352;2023-02-18T06:06:30;95501.94;;;2.10;67.00
41078;BME280;26823;42.662;23.352;2023-02-18T06:08:56;95501.63;;;2.39;66.70
41078;BME280;26823;42.662;23.352;2023-02-18T06:11:21;95500.91;;;2.70;65.05
41078;BME280;26823;42.662;23.352;2023-02-18T06:13:47;95487.47;;;2.84;65.10
41078;BME280;26823;42.662;23.352;2023-02-18T06:16:14;95499.84;;;2.78;62.28
41078;BME280;26823;42.662;23.352;2023-02-18T06:18:40;95508.03;;;2.83;62.90
41078;BME280;26823;42.662;23.352;2023-02-18T06:21:08;95494.03;;;3.26;62.78
41078;BME280;26823;42.662;23.352;2023-02-18T06:23:33;95460.31;;;2.93;61.88
41078;BME280;26823;42.662;23.352;2023-02-18T06:25:59;95487.06;;;3.51;60.96
41078;BME280;26823;42.662;23.352;2023-02-18T06:28:24;95488.28;;;3.55;61.90
41078;BME280;26823;42.662;23.352;2023-02-18T06:30:50;95501.22;;;3.58;61.17
41078;BME280;26823;42.662;23.352;2023-02-18T06:33:15;95496.75;;;3.77;60.09
41078;BME280;26823;42.662;23.352;2023-02-18T06:35:41;95476.44;;;3.69;59.17
41078;BME280;26823;42.662;23.352;2023-02-18T06:38:07;95475.03;;;4.11;58.58
41078;BME280;26823;42.662;23.352;2023-02-18T06:40:32;95478.03;;;4.21;59.06
41078;BME280;26823;42.662;23.352;2023-02-18T06:42:58;95475.47;;;4.07;58.61
41078;BME280;26823;42.662;23.352;2023-02-18T06:45:23;95493.63;;;4.05;59.41
41078;BME280;26823;42.662;23.352;2023-02-18T06:47:49;95496.56;;;3.97;59.18
41078;BME280;26823;42.662;23.352;2023-02-18T06:50:14;95487.44;;;4.05;59.04
41078;BME280;26823;42.662;23.352;2023-02-18T06:52:40;95475.63;;;4.13;57.75
41078;BME280;26823;42.662;23.352;2023-02-18T06:55:07;95451.66;;;4.18;57.34
41078;BME280;26823;42.662;23.352;2023-02-18T06:57:33;95471.53;;;4.66;57.76
41078;BME280;26823;42.662;23.352;2023-02-18T06:59:59;95480.41;;;4.66;57.93
41078;BME280;26823;42.662;23.352;2023-02-18T07:02:26;95479.59;;;4.47;57.02
41078;BME280;26823;42.662;23.352;2023-02-18T07:04:51;95486.06;;;4.21;57.34
41078;BME280;26823;42.662;23.352;2023-02-18T07:07:16;95469.69;;;4.48;57.10
41078;BME280;26823;42.662;23.352;2023-02-18T07:09:42;95475.72;;;4.62;56.58
41078;BME280;26823;42.662;23.352;2023-02-18T07:12:07;95469.00;;;5.01;55.31
41078;BME280;26823;42.662;23.352;2023-02-18T07:14:33;95490.25;;;5.45;53.99
41078;BME280;26823;42.662;23.352;2023-02-18T07:16:58;95470.50;;;5.94;52.21
41078;BME280;26823;42.662;23.352;2023-02-18T07:19:23;95462.16;;;5.60;52.62
41078;BME280;26823;42.662;23.352;2023-02-18T07:21:49;95473.63;;;5.55;52.81
41078;BME280;26823;42.662;23.352;2023-02-18T07:24:14;95477.16;;;5.37;53.23
41078;BME280;26823;42.662;23.352;2023-02-18T07:26:40;95484.16;;;5.38;52.81
41078;BME280;26823;42.662;23.352;2023-02-18T07:29:05;95461.28;;;4.93;54.28
41078;BME280;26823;42.662;23.352;2023-02-18T07:31:31;95465.59;;;5.25;53.60
41078;BME280;26823;42.662;23.352;2023-02-18T07:33:56;95445.47;;;5.46;52.56
41078;BME280;26823;42.662;23.352;2023-02-18T07:36:22;95449.66;;;5.42;52.39
41078;BME280;26823;42.662;23.352;2023-02-18T07:38:47;95479.09;;;5.60;52.29
41078;BME280;26823;42.662;23.352;2023-02-18T07:41:18;95482.44;;;5.44;53.31
41078;BME280;26823;42.662;23.352;2023-02-18T07:43:43;95485.06;;;5.74;52.34
41078;BME280;26823;42.662;23.352;2023-02-18T07:46:09;95500.72;;;5.77;52.61
41078;BME280;26823;42.662;23.352;2023-02-18T07:48:34;95488.84;;;6.09;51.43
41078;BME280;26823;42.662;23.352;2023-02-18T07:51:00;95504.94;;;6.56;49.87
41078;BME280;26823;42.662;23.352;2023-02-18T07:53:29;95500.81;;;6.77;49.58
41078;BME280;26823;42.662;23.352;2023-02-18T07:55:57;95499.19;;;7.17;47.15
41078;BME280;26823;42.662;23.352;2023-02-18T07:58:26;95501.50;;;7.42;46.34
41078;BME280;26823;42.662;23.352;2023-02-18T08:00:52;95494.50;;;7.41;47.47
41078;BME280;26823;42.662;23.352;2023-02-18T08:03:27;95502.94;;;7.79;45.49
41078;BME280;26823;42.662;23.352;2023-02-18T08:05:53;95500.09;;;8.03;44.69
41078;BME280;26823;42.662;23.352;2023-02-18T08:08:21;95480.84;;;7.94;44.75
41078;BME280;26823;42.662;23.352;2023-02-18T08:10:48;95501.72;;;8.99;43.18
41078;BME280;26823;42.662;23.352;2023-02-18T08:13:15;95504.47;;;9.26;41.63
41078;BME280;26823;42.662;23.352;2023-02-18T08:15:40;95489.34;;;10.18;39.88
41078;BME280;26823;42.662;23.352;2023-02-18T08:18:09;95483.44;;;11.22;37.67
41078;BME280;26823;42.662;23.352;2023-02-18T08:20:38;95479.59;;;11.07;37.81
41078;BME280;26823;42.662;23.352;2023-02-18T08:23:04;95476.91;;;11.18;38.32
41078;BME280;26823;42.662;23.352;2023-02-18T08:25:36;95485.19;;;12.47;35.66
41078;BME280;26823;42.662;23.352;2023-02-18T08:28:02;95493.22;;;12.83;34.60
41078;BME280;26823;42.662;23.352;2023-02-18T08:30:27;95481.69;;;12.05;35.53
41078;BME280;26823;42.662;23.352;2023-02-18T08:32:59;95485.47;;;11.94;35.35
41078;BME280;26823;42.662;23.352;2023-02-18T08:35:27;95487.88;;;11.80;35.57
41078;BME280;26823;42.662;23.352;2023-02-18T08:37:53;95479.75;;;10.80;37.28
41078;BME280;26823;42.662;23.352;2023-02-18T08:40:21;95450.16;;;10.15;38.81
41078;BME280;26823;42.662;23.352;2023-02-18T08:42:47;95461.25;;;9.81;39.33
41078;BME280;26823;42.662;23.352;2023-02-18T08:45:18;95449.56;;;10.08;39.17
41078;BME280;26823;42.662;23.352;2023-02-18T08:48:03;95426.13;;;9.49;39.20
41078;BME280;26823;42.662;23.352;2023-02-18T08:50:35;95421.94;;;9.36;40.11
41078;BME280;26823;42.662;23.352;2023-02-18T08:53:19;95362.75;;;8.96;40.04
41078;BME280;26823;42.662;23.352;2023-02-18T08:56:15;95484.84;;;9.63;39.96
41078;BME280;26823;42.662;23.352;2023-02-18T08:58:48;95461.88;;;9.61;40.12
41078;BME280;26823;42.662;23.352;2023-02-18T09:01:35;95486.47;;;9.92;39.83
41078;BME280;26823;42.662;23.352;2023-02-18T09:04:08;95441.56;;;9.26;40.19
41078;BME280;26823;42.662;23.352;2023-02-18T09:10:03;95473.34;;;9.46;40.89
41078;BME280;26823;42.662;23.352;2023-02-18T09:12:50;95442.34;;;9.54;40.18
41078;BME280;26823;42.662;23.352;2023-02-18T09:15:24;95361.81;;;9.78;39.45
41078;BME280;26823;42.662;23.352;2023-02-18T09:18:12;95404.63;;;10.39;38.12
41078;BME280;26823;42.662;23.352;2023-02-18T09:20:40;95398.56;;;10.80;37.12
41078;BME280;26823;42.662;23.352;2023-02-18T09:23:05;95410.00;;;11.03;37.49
41078;BME280;26823;42.662;23.352;2023-02-18T09:25:31;95438.84;;;11.66;36.39
41078;BME280;26823;42.662;23.352;2023-02-18T09:27:56;95433.41;;;11.81;36.19
41078;BME280;26823;42.662;23.352;2023-02-18T09:30:22;95459.44;;;12.29;35.19
41078;BME280;26823;42.662;23.352;2023-02-18T09:32:47;95455.78;;;12.80;34.56
41078;BME280;26823;42.662;23.352;2023-02-18T09:35:13;95450.09;;;13.36;33.60
41078;BME280;26823;42.662;23.352;2023-02-18T09:37:38;95437.09;;;14.66;31.60
41078;BME280;26823;42.662;23.352;2023-02-18T09:40:05;95452.50;;;15.00;30.18
41078;BME280;26823;42.662;23.352;2023-02-18T09:42:33;95446.00;;;14.48;32.14
41078;BME280;26823;42.662;23.352;2023-02-18T09:45:02;95445.44;;;14.75;30.85
41078;BME280;26823;42.662;23.352;2023-02-18T09:47:38;95445.16;;;13.89;31.78
41078;BME280;26823;42.662;23.352;2023-02-18T09:50:21;95463.53;;;14.37;31.73
41078;BME280;26823;42.662;23.352;2023-02-18T09:52:48;95457.09;;;15.05;31.70
41078;BME280;26823;42.662;23.352;2023-02-18T09:57:50;95463.38;;;15.25;30.32
41078;BME280;26823;42.662;23.352;2023-02-18T10:00:24;95451.03;;;14.60;30.42
41078;BME280;26823;42.662;23.352;2023-02-18T10:02:57;95450.91;;;14.46;31.17
41078;BME280;26823;42.662;23.352;2023-02-18T10:05:26;95442.94;;;14.55;31.04
41078;BME280;26823;42.662;23.352;2023-02-18T10:07:57;95435.31;;;13.58;32.51
41078;BME280;26823;42.662;23.352;2023-02-18T10:10:44;95434.78;;;13.91;32.08
41078;BME280;26823;42.662;23.352;2023-02-18T10:13:19;95427.94;;;14.81;30.90
41078;BME280;26823;42.662;23.352;2023-02-18T10:15:46;95428.63;;;15.55;29.91
41078;BME280;26823;42.662;23.352;2023-02-18T10:18:29;95429.78;;;16.67;28.11
41078;BME280;26823;42.662;23.352;2023-02-18T10:21:05;95433.09;;;17.84;25.93
41078;BME280;26823;42.662;23.352;2023-02-18T10:23:37;95430.97;;;18.49;25.38
41078;BME280;26823;42.662;23.352;2023-02-18T10:26:07;95427.81;;;19.71;24.15
41078;BME280;26823;42.662;23.352;2023-02-18T10:28:35;95417.75;;;20.45;22.51
41078;BME280;26823;42.662;23.352;2023-02-18T10:31:08;95411.75;;;20.52;22.32
41078;BME280;26823;42.662;23.352;2023-02-18T10:36:30;95414.81;;;20.59;22.54
41078;BME280;26823;42.662;23.352;2023-02-18T10:47:14;95386.13;;;22.68;20.35
41078;BME280;26823;42.662;23.352;2023-02-18T10:52:13;95388.22;;;21.41;20.98
41078;BME280;26823;42.662;23.352;2023-02-18T10:54:57;95371.50;;;19.47;22.67
41078;BME280;26823;42.662;23.352;2023-02-18T10:57:24;95371.84;;;20.93;21.11
41078;BME280;26823;42.662;23.352;2023-02-18T10:59:59;95379.59;;;21.93;20.85
41078;BME280;26823;42.662;23.352;2023-02-18T11:02:28;95372.03;;;23.07;19.79
41078;BME280;26823;42.662;23.352;2023-02-18T11:04:57;95367.84;;;22.63;19.35
41078;BME280;26823;42.662;23.352;2023-02-18T11:07:32;95360.19;;;21.47;20.19
41078;BME280;26823;42.662;23.352;2023-02-18T11:10:01;95353.22;;;19.16;22.57
41078;BME280;26823;42.662;23.352;2023-02-18T11:17:40;95339.50;;;21.20;21.00
41078;BME280;26823;42.662;23.352;2023-02-18T11:20:29;95346.66;;;20.44;21.76
41078;BME280;26823;42.662;23.352;2023-02-18T11:22:57;95322.91;;;19.83;22.20
41078;BME280;26823;42.662;23.352;2023-02-18T11:25:28;95313.56;;;19.49;23.09
41078;BME280;26823;42.662;23.352;2023-02-18T11:28:03;95319.31;;;20.00;22.59
41078;BME280;26823;42.662;23.352;2023-02-18T11:30:32;95312.44;;;19.59;23.73
41078;BME280;26823;42.662;23.352;2023-02-18T11:33:07;95289.38;;;19.33;23.06
41078;BME280;26823;42.662;23.352;2023-02-18T11:35:34;95304.16;;;19.94;22.03
41078;BME280;26823;42.662;23.352;2023-02-18T11:38:02;95273.94;;;20.02;21.50
41078;BME280;26823;42.662;23.352;2023-02-18T11:40:32;95294.91;;;20.07;23.13
41078;BME280;26823;42.662;23.352;2023-02-18T11:43:20;95283.28;;;21.09;28.68
41078;BME280;26823;42.662;23.352;2023-02-18T11:45:46;95279.13;;;21.24;23.52
41078;BME280;26823;42.662;23.352;2023-02-18T11:48:22;95279.75;;;21.84;20.37
41078;BME280;26823;42.662;23.352;2023-02-18T11:50:52;95284.72;;;22.61;19.90
41078;BME280;26823;42.662;23.352;2023-02-18T11:55:58;95272.78;;;22.45;25.24
41078;BME280;26823;42.662;23.352;2023-02-18T11:58:26;95259.09;;;23.39;18.98
41078;BME280;26823;42.662;23.352;2023-02-18T12:00:55;95250.56;;;23.16;20.04
41078;BME280;26823;42.662;23.352;2023-02-18T12:03:42;95256.13;;;22.54;19.39
41078;BME280;26823;42.662;23.352;2023-02-18T12:06:50;95242.38;;;21.07;22.39
41078;BME280;26823;42.662;23.352;2023-02-18T12:09:30;95231.63;;;20.63;21.04
41078;BME280;26823;42.662;23.352;2023-02-18T12:12:40;95219.75;;;20.50;28.96
41078;BME280;26823;42.662;23.352;2023-02-18T12:15:02;95218.28;;;21.25;22.00
41078;BME280;26823;42.662;23.352;2023-02-18T12:22:59;95235.34;;;22.44;24.11
41078;BME280;26823;42.662;23.352;2023-02-18T12:28:18;95230.66;;;20.38;22.93
41078;BME280;26823;42.662;23.352;2023-02-18T12:36:26;95218.34;;;20.14;24.10
41078;BME280;26823;42.662;23.352;2023-02-18T12:39:02;95214.41;;;20.54;22.78
41078;BME280;26823;42.662;23.352;2023-02-18T12:52:48;95192.16;;;20.17;23.13
41078;BME280;26823;42.662;23.352;2023-02-18T13:01:35;95200.38;;;20.26;25.84
41078;BME280;26823;42.662;23.352;2023-02-18T13:03:59;95194.50;;;20.87;24.67
41078;BME280;26823;42.662;23.352;2023-02-18T13:14:28;95198.00;;;20.66;23.04
41078;BME280;26823;42.662;23.352;2023-02-18T13:16:57;95188.13;;;20.95;21.43
41078;BME280;26823;42.662;23.352;2023-02-18T13:19:26;95188.75;;;20.20;22.51
41078;BME280;26823;42.662;23.352;2023-02-18T13:22:03;95189.97;;;20.31;27.94
41078;BME280;26823;42.662;23.352;2023-02-18T13:24:39;95190.56;;;20.46;23.30
41078;BME280;26823;42.662;23.352;2023-02-18T13:27:18;95190.25;;;20.09;28.40
41078;BME280;26823;42.662;23.352;2023-02-18T13:32:23;95186.50;;;19.66;23.54
41078;BME280;26823;42.662;23.352;2023-02-18T13:40:20;95190.94;;;19.40;27.83
41078;BME280;26823;42.662;23.352;2023-02-18T13:42:50;95168.13;;;19.01;24.77
41078;BME280;26823;42.662;23.352;2023-02-18T13:47:48;95189.50;;;18.64;27.03
41078;BME280;26823;42.662;23.352;2023-02-18T13:52:59;95182.47;;;18.05;26.15
41078;BME280;26823;42.662;23.352;2023-02-18T13:55:56;95180.91;;;17.82;27.27
41078;BME280;26823;42.662;23.352;2023-02-18T13:58:41;95179.06;;;17.59;26.86
41078;BME280;26823;42.662;23.352;2023-02-18T14:06:21;95178.38;;;16.86;28.45
41078;BME280;26823;42.662;23.352;2023-02-18T14:08:48;95169.25;;;16.31;29.53
41078;BME280;26823;42.662;23.352;2023-02-18T14:16:14;95173.38;;;16.42;32.93
41078;BME280;26823;42.662;23.352;2023-02-18T14:21:35;95188.69;;;15.88;30.60
41078;BME280;26823;42.662;23.352;2023-02-18T14:24:03;95190.31;;;16.17;30.06
41078;BME280;26823;42.662;23.352;2023-02-18T14:26:36;95174.25;;;15.26;30.62
41078;BME280;26823;42.662;23.352;2023-02-18T14:29:09;95169.81;;;15.30;30.67
41078;BME280;26823;42.662;23.352;2023-02-18T14:32:01;95187.50;;;15.33;30.97
41078;BME280;26823;42.662;23.352;2023-02-18T14:45:23;95175.00;;;14.61;32.03
41078;BME280;26823;42.662;23.352;2023-02-18T14:50:58;95186.38;;;15.20;37.12
41078;BME280;26823;42.662;23.352;2023-02-18T14:53:26;95177.50;;;14.95;32.96
41078;BME280;26823;42.662;23.352;2023-02-18T14:56:01;95176.53;;;15.05;31.86
41078;BME280;26823;42.662;23.352;2023-02-18T14:58:35;95179.13;;;14.96;32.22
41078;BME280;26823;42.662;23.352;2023-02-18T15:01:06;95178.38;;;14.52;32.42
41078;BME280;26823;42.662;23.352;2023-02-18T15:03:32;95177.44;;;14.62;33.28
41078;BME280;26823;42.662;23.352;2023-02-18T15:05:57;95169.34;;;14.57;33.45
41078;BME280;26823;42.662;23.352;2023-02-18T15:08:25;95158.66;;;14.03;33.48
41078;BME280;26823;42.662;23.352;2023-02-18T15:15:51;95169.28;;;13.57;34.40
41078;BME280;26823;42.662;23.352;2023-02-18T15:18:39;95175.78;;;14.04;33.83
41078;BME280;26823;42.662;23.352;2023-02-18T15:21:08;95166.75;;;14.09;36.43
41078;BME280;26823;42.662;23.352;2023-02-18T15:23:35;95159.94;;;14.11;33.50
41078;BME280;26823;42.662;23.352;2023-02-18T15:26:03;95152.03;;;13.66;36.12
41078;BME280;26823;42.662;23.352;2023-02-18T15:28:32;95159.28;;;13.76;34.43
41078;BME280;26823;42.662;23.352;2023-02-18T15:30:59;95161.63;;;13.59;35.69
41078;BME280;26823;42.662;23.352;2023-02-18T15:33:26;95145.09;;;13.55;35.10
41078;BME280;26823;42.662;23.352;2023-02-18T15:35:59;95140.75;;;13.54;35.37
41078;BME280;26823;42.662;23.352;2023-02-18T15:38:25;95143.25;;;13.21;36.32
41078;BME280;26823;42.662;23.352;2023-02-18T15:40:52;95142.97;;;13.52;35.45
41078;BME280;26823;42.662;23.352;2023-02-18T15:43:21;95133.19;;;12.97;36.41
41078;BME280;26823;42.662;23.352;2023-02-18T15:45:50;95146.84;;;13.16;35.96